createdAt,value
2022-09-07T00:01:01.944Z,100896.70
2022-09-07T00:03:30.359Z,100891.48
2022-09-07T00:05:58.343Z,100889.26
2022-09-07T00:08:29.736Z,100885.88
2022-09-07T00:11:03.949Z,100887.23
2022-09-07T00:13:34.537Z,100886.84
2022-09-07T00:16:07.657Z,100883.55
2022-09-07T00:18:35.851Z,100881.45
2022-09-07T00:21:06.967Z,100881.30
2022-09-07T00:23:36.427Z,100874.73
2022-09-07T00:26:07.784Z,100876.08
2022-09-07T00:28:36.660Z,100879.88
2022-09-07T00:31:05.461Z,100875.71
2022-09-07T00:33:33.190Z,100873.34
2022-09-07T00:36:01.278Z,100869.88
2022-09-07T00:38:29.191Z,100870.18
2022-09-07T00:40:57.083Z,100870.11
2022-09-07T00:43:40.780Z,100870.15
2022-09-07T00:46:16.739Z,100872.20
2022-09-07T00:48:53.546Z,100871.95
2022-09-07T00:51:29.236Z,100872.98
2022-09-07T00:54:01.763Z,100868.73
2022-09-07T00:56:33.101Z,100870.77
2022-09-07T00:59:00.966Z,100870.50
2022-09-07T01:01:29.855Z,100873.08
2022-09-07T01:03:59.656Z,100869.19
2022-09-07T01:06:33.742Z,100872.31
2022-09-07T01:09:10.520Z,100870.59
2022-09-07T01:11:39.216Z,100876.03
2022-09-07T01:14:09.581Z,100875.52
2022-09-07T01:17:07.336Z,100875.83
2022-09-07T01:20:06.084Z,100875.56
2022-09-07T01:23:11.808Z,100878.33
2022-09-07T01:26:00.593Z,100876.39
2022-09-07T01:28:31.491Z,100876.89
2022-09-07T01:31:03.763Z,100873.84
2022-09-07T01:33:59.773Z,100874.03
2022-09-07T01:36:27.748Z,100871.09
2022-09-07T01:39:00.537Z,100871.57
2022-09-07T01:41:43.635Z,100867.87
2022-09-07T01:44:32.409Z,100869.88
2022-09-07T01:47:21.682Z,100875.38
2022-09-07T01:49:56.670Z,100874.48
2022-09-07T01:52:42.879Z,100873.01
2022-09-07T01:55:18.886Z,100872.52
2022-09-07T01:57:55.646Z,100872.63
2022-09-07T02:00:23.662Z,100866.85
2022-09-07T02:03:15.130Z,100873.02
2022-09-07T02:06:07.673Z,100867.79
2022-09-07T02:08:47.848Z,100868.61
2022-09-07T02:11:23.756Z,100865.30
2022-09-07T02:13:51.358Z,100863.36
2022-09-07T02:16:27.172Z,100863.09
2022-09-07T02:18:57.170Z,100860.26
2022-09-07T02:21:31.606Z,100859.41
2022-09-07T02:24:41.202Z,100862.15
2022-09-07T02:27:14.339Z,100862.80
2022-09-07T02:29:43.589Z,100856.81
2022-09-07T02:32:11.708Z,100857.38
2022-09-07T02:34:39.693Z,100858.71
2022-09-07T02:37:09.142Z,100859.20
2022-09-07T02:39:37.670Z,100862.70
2022-09-07T02:42:05.787Z,100863.33
2022-09-07T02:44:36.228Z,100863.33
2022-09-07T02:47:09.866Z,100860.48
2022-09-07T02:49:51.173Z,100856.95
2022-09-07T02:52:31.682Z,100851.68
2022-09-07T02:55:24.485Z,100845.04
2022-09-07T02:58:02.072Z,100842.93
2022-09-07T03:00:34.435Z,100842.52
2022-09-07T03:03:16.829Z,100836.58
2022-09-07T03:06:07.909Z,100840.79
2022-09-07T03:08:44.357Z,100839.84
2022-09-07T03:11:13.219Z,100836.06
2022-09-07T03:13:41.048Z,100832.27
2022-09-07T03:16:13.822Z,100832.09
2022-09-07T03:18:42.910Z,100831.27
2022-09-07T03:21:11.343Z,100831.39
2022-09-07T03:23:39.522Z,100832.64
2022-09-07T03:26:07.401Z,100830.88
2022-09-07T03:28:35.100Z,100835.67
2022-09-07T03:31:03.348Z,100834.80
2022-09-07T03:33:31.196Z,100835.05
2022-09-07T03:36:01.339Z,100833.17
2022-09-07T03:38:30.770Z,100834.52
2022-09-07T03:41:03.199Z,100833.59
2022-09-07T03:43:32.210Z,100836.07
2022-09-07T03:46:02.497Z,100834.88
2022-09-07T03:48:32.000Z,100836.45
2022-09-07T03:51:01.611Z,100835.23
2022-09-07T03:53:34.071Z,100840.98
2022-09-07T03:56:11.519Z,100842.36
2022-09-07T03:58:39.766Z,100840.95
2022-09-07T04:01:10.990Z,100838.22
2022-09-07T04:03:39.738Z,100836.79
2022-09-07T04:06:08.100Z,100832.84
2022-09-07T04:08:37.613Z,100832.78
2022-09-07T04:11:06.950Z,100834.28
2022-09-07T04:13:35.989Z,100835.90
2022-09-07T04:16:16.572Z,100840.49
2022-09-07T04:18:44.900Z,100842.73
2022-09-07T04:21:13.229Z,100836.40
2022-09-07T04:23:42.485Z,100838.29
2022-09-07T04:26:15.292Z,100840.16
2022-09-07T04:28:43.180Z,100843.98
2022-09-07T04:31:12.476Z,100843.68
2022-09-07T04:33:40.419Z,100846.16
2022-09-07T04:36:09.456Z,100844.21
2022-09-07T04:38:37.463Z,100839.59
2022-09-07T04:41:10.233Z,100832.99
2022-09-07T04:43:39.426Z,100835.58
2022-09-07T04:46:33.864Z,100839.41
2022-09-07T04:49:06.051Z,100839.77
2022-09-07T04:51:34.849Z,100844.53
2022-09-07T04:54:04.364Z,100844.83
2022-09-07T04:56:33.628Z,100844.59
2022-09-07T04:59:02.246Z,100846.58
2022-09-07T05:01:30.753Z,100844.45
2022-09-07T05:04:02.724Z,100846.40
2022-09-07T05:06:30.868Z,100842.52
2022-09-07T05:08:59.393Z,100842.73
2022-09-07T05:11:29.525Z,100837.45
2022-09-07T05:13:59.629Z,100836.11
2022-09-07T05:16:27.853Z,100830.73
2022-09-07T05:18:58.076Z,100835.84
2022-09-07T05:21:28.245Z,100830.52
2022-09-07T05:23:57.817Z,100840.35
2022-09-07T05:26:28.084Z,100840.08
2022-09-07T05:31:43.840Z,100843.81
2022-09-07T05:36:59.704Z,100841.88
2022-09-07T05:39:28.129Z,100837.59
2022-09-07T05:41:56.033Z,100837.30
2022-09-07T05:47:12.085Z,100831.92
2022-09-07T05:49:40.021Z,100832.09
2022-09-07T05:52:08.271Z,100832.34
2022-09-07T05:54:36.253Z,100835.72
2022-09-07T05:57:04.467Z,100827.70
2022-09-07T05:59:32.325Z,100824.86
2022-09-07T06:02:00.098Z,100821.04
2022-09-07T06:04:28.101Z,100821.64
2022-09-07T06:07:21.681Z,100819.90
2022-09-07T06:12:31.649Z,100825.13
2022-09-07T06:15:01.433Z,100829.42
2022-09-07T06:17:30.041Z,100825.57
2022-09-07T06:19:58.211Z,100816.73
2022-09-07T06:22:30.588Z,100815.99
2022-09-07T06:24:59.287Z,100811.05
2022-09-07T06:27:27.391Z,100807.80
2022-09-07T06:29:57.086Z,100804.48
2022-09-07T06:35:08.613Z,100802.05
2022-09-07T06:37:36.733Z,100794.38
2022-09-07T06:40:05.160Z,100789.86
2022-09-07T06:42:33.064Z,100789.11
2022-09-07T06:45:00.790Z,100786.40
2022-09-07T06:47:28.649Z,100790.44
2022-09-07T06:49:56.549Z,100798.83
2022-09-07T06:52:24.311Z,100803.77
2022-09-07T06:54:59.359Z,100798.88
2022-09-07T06:57:28.071Z,100795.87
2022-09-07T06:59:56.008Z,100799.48
2022-09-07T07:02:23.734Z,100801.48
2022-09-07T07:04:51.721Z,100801.04
2022-09-07T07:07:19.472Z,100801.40
2022-09-07T07:09:50.102Z,100799.43
2022-09-07T07:14:45.386Z,100816.27
2022-09-07T07:17:13.645Z,100824.61
2022-09-07T07:19:41.425Z,100824.13
2022-09-07T07:22:45.458Z,100824.33
2022-09-07T07:24:57.247Z,100828.89
2022-09-07T07:27:25.332Z,100830.78
2022-09-07T07:29:53.879Z,100833.98
2022-09-07T07:32:21.793Z,100834.70
2022-09-07T07:34:49.542Z,100832.88
2022-09-07T07:37:17.375Z,100834.81
2022-09-07T07:42:34.138Z,100829.45
2022-09-07T07:47:51.552Z,100812.77
2022-09-07T07:50:35.098Z,100814.78
2022-09-07T07:55:51.393Z,100811.67
2022-09-07T07:58:19.566Z,100810.13
2022-09-07T08:00:55.854Z,100801.14
2022-09-07T08:03:25.168Z,100797.26
2022-09-07T08:05:54.045Z,100798.07
2022-09-07T08:08:23.601Z,100796.09
2022-09-07T08:10:51.413Z,100794.56
2022-09-07T08:13:19.288Z,100795.20
2022-09-07T08:15:47.502Z,100796.11
2022-09-07T08:18:16.975Z,100791.94
2022-09-07T08:20:45.357Z,100789.13
2022-09-07T08:23:13.117Z,100787.77
2022-09-07T08:25:49.983Z,100786.38
2022-09-07T08:28:17.706Z,100788.17
2022-09-07T08:30:45.449Z,100779.48
2022-09-07T08:33:13.533Z,100775.78
2022-09-07T08:35:41.351Z,100767.48
2022-09-07T08:38:09.366Z,100768.20
2022-09-07T08:40:38.231Z,100764.15
2022-09-07T08:43:09.129Z,100765.27
2022-09-07T08:45:41.162Z,100765.52
2022-09-07T08:48:10.457Z,100766.30
2022-09-07T08:50:45.150Z,100767.89
2022-09-07T08:53:14.642Z,100763.60
2022-09-07T08:55:51.801Z,100764.04
2022-09-07T08:58:48.090Z,100764.50
2022-09-07T09:01:35.953Z,100760.64
2022-09-07T09:04:17.529Z,100752.17
2022-09-07T09:07:08.107Z,100741.52
2022-09-07T09:10:13.368Z,100741.71
2022-09-07T09:13:11.966Z,100737.70
2022-09-07T09:15:52.330Z,100727.77
2022-09-07T09:18:25.461Z,100728.13
2022-09-07T09:20:58.984Z,100735.07
2022-09-07T09:23:53.872Z,100724.27
2022-09-07T09:26:24.637Z,100729.41
2022-09-07T09:28:52.482Z,100719.03
2022-09-07T09:31:22.660Z,100722.51
2022-09-07T09:34:05.456Z,100721.81
2022-09-07T09:36:55.644Z,100723.46
2022-09-07T09:39:34.129Z,100720.50
2022-09-07T09:42:15.662Z,100720.23
2022-09-07T09:44:44.137Z,100717.91
2022-09-07T09:47:31.665Z,100713.98
2022-09-07T09:53:29.388Z,100707.70
2022-09-07T09:55:57.168Z,100709.66
2022-09-07T10:01:27.105Z,100701.23
2022-09-07T10:03:56.749Z,100701.94
2022-09-07T10:06:26.126Z,100700.16
2022-09-07T10:08:59.958Z,100695.55
2022-09-07T10:12:08.230Z,100694.58
2022-09-07T10:14:46.793Z,100688.69
2022-09-07T10:17:32.825Z,100683.70
2022-09-07T10:20:24.683Z,100681.14
2022-09-07T10:22:52.267Z,100673.81
2022-09-07T10:25:36.953Z,100669.09
2022-09-07T10:28:11.291Z,100663.25
2022-09-07T10:31:02.582Z,100661.73
2022-09-07T10:37:01.504Z,100658.73
2022-09-07T10:39:36.733Z,100658.06
2022-09-07T10:42:25.327Z,100655.92
2022-09-07T10:44:58.996Z,100648.89
2022-09-07T10:48:02.067Z,100644.54
2022-09-07T10:50:43.410Z,100640.70
2022-09-07T10:53:43.150Z,100643.18
2022-09-07T10:56:29.868Z,100641.42
2022-09-07T10:59:06.249Z,100637.69
2022-09-07T11:01:43.736Z,100634.09
2022-09-07T11:04:20.517Z,100637.37
2022-09-07T11:06:50.665Z,100634.94
2022-09-07T11:09:42.520Z,100630.82
2022-09-07T11:12:16.835Z,100628.60
2022-09-07T11:14:51.605Z,100627.92
2022-09-07T11:17:23.343Z,100627.47
2022-09-07T11:20:04.869Z,100622.73
2022-09-07T11:22:43.081Z,100623.73
2022-09-07T11:25:35.339Z,100630.14
2022-09-07T11:28:10.029Z,100624.47
2022-09-07T11:30:44.482Z,100620.39
2022-09-07T11:33:20.050Z,100614.74
2022-09-07T11:35:54.682Z,100612.27
2022-09-07T11:38:39.387Z,100608.92
2022-09-07T11:41:40.259Z,100600.77
2022-09-07T11:44:32.905Z,100602.78
2022-09-07T11:47:10.078Z,100598.88
2022-09-07T11:49:38.161Z,100600.54
2022-09-07T11:52:18.309Z,100600.70
2022-09-07T11:54:53.415Z,100599.22
2022-09-07T11:58:13.721Z,100601.27
2022-09-07T12:00:51.988Z,100604.70
2022-09-07T12:03:25.736Z,100602.48
2022-09-07T12:06:05.800Z,100601.04
2022-09-07T12:08:58.422Z,100596.73
2022-09-07T12:11:32.068Z,100595.55
2022-09-07T12:14:16.186Z,100595.52
2022-09-07T12:17:23.837Z,100598.02
2022-09-07T12:20:10.334Z,100596.04
2022-09-07T12:22:38.165Z,100592.31
2022-09-07T12:25:10.134Z,100594.06
2022-09-07T12:27:38.796Z,100594.46
2022-09-07T12:30:06.932Z,100594.52
2022-09-07T12:32:55.296Z,100595.00
2022-09-07T12:35:26.651Z,100588.23
2022-09-07T12:37:56.282Z,100578.34
2022-09-07T12:40:36.229Z,100568.73
2022-09-07T12:43:13.023Z,100562.02
2022-09-07T12:45:41.681Z,100561.95
2022-09-07T12:48:15.027Z,100564.10
2022-09-07T12:50:56.086Z,100561.36
2022-09-07T12:53:31.001Z,100554.52
2022-09-07T12:56:21.721Z,100551.14
2022-09-07T12:59:01.680Z,100555.77
2022-09-07T13:01:34.523Z,100554.12
2022-09-07T13:04:28.969Z,100552.48
2022-09-07T13:07:27.492Z,100549.01
2022-09-07T13:10:03.999Z,100548.67
2022-09-07T13:15:32.386Z,100548.17
2022-09-07T13:18:00.801Z,100543.30
2022-09-07T13:20:36.141Z,100539.57
2022-09-07T13:23:26.311Z,100538.36
2022-09-07T13:25:55.913Z,100539.17
2022-09-07T13:28:28.464Z,100541.32
2022-09-07T13:30:56.433Z,100535.71
2022-09-07T13:33:24.231Z,100528.73
2022-09-07T13:35:54.460Z,100529.36
2022-09-07T13:38:22.908Z,100529.52
2022-09-07T13:40:52.357Z,100528.89
2022-09-07T13:43:22.349Z,100530.04
2022-09-07T13:45:52.991Z,100532.40
2022-09-07T13:48:26.735Z,100534.81
2022-09-07T13:51:19.317Z,100528.27
2022-09-07T13:53:56.187Z,100531.69
2022-09-07T13:56:41.437Z,100531.05
2022-09-07T13:59:18.710Z,100522.11
2022-09-07T14:01:48.141Z,100515.91
2022-09-07T14:04:25.334Z,100513.52
2022-09-07T14:07:03.095Z,100512.18
2022-09-07T14:09:30.952Z,100510.38
2022-09-07T14:11:58.642Z,100513.52
2022-09-07T14:14:29.439Z,100508.06
2022-09-07T14:17:00.032Z,100508.14
2022-09-07T14:19:41.281Z,100507.57
2022-09-07T14:22:23.269Z,100502.13
2022-09-07T14:24:54.155Z,100502.42
2022-09-07T14:27:26.169Z,100495.16
2022-09-07T14:29:54.625Z,100496.43
2022-09-07T14:32:24.328Z,100495.34
2022-09-07T14:34:52.739Z,100491.88
2022-09-07T14:37:22.875Z,100494.23
2022-09-07T14:39:51.073Z,100490.32
2022-09-07T14:42:23.626Z,100488.77
2022-09-07T14:45:18.890Z,100481.76
2022-09-07T14:47:49.032Z,100476.89
2022-09-07T14:50:20.558Z,100477.11
2022-09-07T14:55:41.423Z,100476.92
2022-09-07T14:58:15.338Z,100475.31
2022-09-07T15:03:39.754Z,100472.23
2022-09-07T15:07:00.514Z,100471.23
2022-09-07T15:08:58.328Z,100463.19
2022-09-07T15:11:35.402Z,100464.83
2022-09-07T15:14:10.382Z,100467.02
2022-09-07T15:16:41.396Z,100465.87
2022-09-07T15:19:15.571Z,100464.83
2022-09-07T15:21:44.046Z,100464.29
2022-09-07T15:24:12.171Z,100464.42
2022-09-07T15:29:31.657Z,100473.73
2022-09-07T15:32:04.449Z,100472.34
2022-09-07T15:34:34.378Z,100473.27
2022-09-07T15:37:03.652Z,100473.67
2022-09-07T15:39:34.426Z,100472.16
2022-09-07T15:42:59.649Z,100472.59
2022-09-07T15:44:51.135Z,100472.52
2022-09-07T15:50:07.897Z,100472.85
2022-09-07T15:52:35.801Z,100470.47
2022-09-07T15:55:03.672Z,100464.02
2022-09-07T16:00:19.753Z,100463.20
2022-09-07T16:03:05.691Z,100462.11
2022-09-07T16:05:34.518Z,100469.03
2022-09-07T16:10:53.881Z,100464.74
2022-09-07T16:13:24.130Z,100458.55
2022-09-07T16:15:52.333Z,100457.56
2022-09-07T16:18:20.433Z,100452.73
2022-09-07T16:20:52.683Z,100448.62
2022-09-07T16:23:21.185Z,100449.19
2022-09-07T16:25:59.991Z,100450.70
2022-09-07T16:28:28.655Z,100447.85
2022-09-07T16:30:56.855Z,100448.92
2022-09-07T16:33:33.140Z,100450.48
2022-09-07T16:36:09.382Z,100443.70
2022-09-07T16:38:45.490Z,100438.70
2022-09-07T16:41:20.020Z,100435.71
2022-09-07T16:43:49.485Z,100434.48
2022-09-07T16:46:19.827Z,100436.38
2022-09-07T16:48:48.245Z,100435.90
2022-09-07T16:51:17.628Z,100435.23
2022-09-07T16:53:48.906Z,100436.44
2022-09-07T16:56:22.848Z,100442.16
2022-09-07T16:58:53.003Z,100443.53
2022-09-07T17:01:26.519Z,100438.51
2022-09-07T17:03:55.282Z,100442.60
2022-09-07T17:06:25.005Z,100437.13
2022-09-07T17:08:53.221Z,100439.47
2022-09-07T17:11:23.300Z,100441.19
2022-09-07T17:13:52.345Z,100439.50
2022-09-07T17:16:25.163Z,100444.81
2022-09-07T17:21:41.797Z,100444.38
2022-09-07T17:24:11.201Z,100445.75
2022-09-07T17:26:42.311Z,100449.98
2022-09-07T17:29:13.232Z,100455.01
2022-09-07T17:34:30.385Z,100457.41
2022-09-07T17:37:00.608Z,100464.85
2022-09-07T17:39:29.622Z,100465.45
2022-09-07T17:41:58.852Z,100466.04
2022-09-07T17:44:30.768Z,100466.07
2022-09-07T17:47:00.128Z,100467.27
2022-09-07T17:49:29.350Z,100469.22
2022-09-07T17:51:58.746Z,100469.48
2022-09-07T17:54:27.261Z,100474.70
2022-09-07T17:56:54.960Z,100471.61
2022-09-07T18:02:13.708Z,100478.32
2022-09-07T18:04:42.675Z,100480.75
2022-09-07T18:07:10.765Z,100477.41
2022-09-07T18:09:39.051Z,100474.91
2022-09-07T18:12:06.988Z,100475.75
2022-09-07T18:14:34.621Z,100475.14
2022-09-07T18:17:02.294Z,100476.01
2022-09-07T18:19:30.640Z,100474.84
2022-09-07T18:21:58.291Z,100478.66
2022-09-07T18:24:27.314Z,100478.34
2022-09-07T18:26:55.413Z,100478.77
2022-09-07T18:29:29.329Z,100474.43
2022-09-07T18:31:58.117Z,100472.20
2022-09-07T18:34:26.585Z,100473.84
2022-09-07T18:36:55.173Z,100473.84
2022-09-07T18:39:23.118Z,100472.48
2022-09-07T18:41:53.853Z,100467.14
2022-09-07T18:47:17.529Z,100474.98
2022-09-07T18:49:49.184Z,100475.73
2022-09-07T18:55:07.237Z,100475.74
2022-09-07T18:57:36.329Z,100474.58
2022-09-07T19:00:07.517Z,100474.45
2022-09-07T19:02:35.929Z,100475.30
2022-09-07T19:07:52.117Z,100482.17
2022-09-07T19:10:20.122Z,100481.13
2022-09-07T19:12:48.026Z,100476.80
2022-09-07T19:15:15.769Z,100480.81
2022-09-07T19:17:43.864Z,100481.47
2022-09-07T19:20:12.672Z,100477.82
2022-09-07T19:22:42.904Z,100480.36
2022-09-07T19:25:11.263Z,100485.28
2022-09-07T19:27:39.454Z,100480.59
2022-09-07T19:30:08.028Z,100480.80
2022-09-07T19:32:35.858Z,100478.05
2022-09-07T19:35:04.131Z,100476.13
2022-09-07T19:37:32.735Z,100475.31
2022-09-07T19:42:28.830Z,100478.05
2022-09-07T19:44:56.439Z,100475.95
2022-09-07T19:47:25.701Z,100475.58
2022-09-07T19:49:54.162Z,100472.30
2022-09-07T19:52:21.877Z,100471.51
2022-09-07T19:54:49.545Z,100471.23
2022-09-07T19:57:17.407Z,100472.88
2022-09-07T19:59:47.298Z,100470.42
2022-09-07T20:02:15.036Z,100473.27
2022-09-07T20:04:42.900Z,100476.86
2022-09-07T20:07:11.734Z,100474.86
2022-09-07T20:09:39.605Z,100480.98
2022-09-07T20:12:08.044Z,100480.59
2022-09-07T20:14:35.703Z,100482.17
2022-09-07T20:17:03.678Z,100478.34
2022-09-07T20:19:31.410Z,100479.79
2022-09-07T20:21:59.069Z,100478.29
2022-09-07T20:24:27.699Z,100479.83
2022-09-07T20:26:55.435Z,100479.23
2022-09-07T20:29:27.641Z,100478.48
2022-09-07T20:32:01.106Z,100477.50
2022-09-07T20:34:29.233Z,100479.45
2022-09-07T20:36:57.247Z,100474.20
2022-09-07T20:39:25.646Z,100471.61
2022-09-07T20:41:53.696Z,100473.88
2022-09-07T20:44:21.513Z,100476.38
2022-09-07T20:46:49.175Z,100475.60
2022-09-07T20:49:17.206Z,100478.31
2022-09-07T20:51:44.933Z,100480.06
2022-09-07T20:54:12.737Z,100482.98
2022-09-07T20:56:40.412Z,100481.34
2022-09-07T20:59:08.515Z,100483.39
2022-09-07T21:01:36.614Z,100483.56
2022-09-07T21:04:06.005Z,100484.56
2022-09-07T21:06:33.829Z,100484.73
2022-09-07T21:09:01.622Z,100486.81
2022-09-07T21:11:34.461Z,100489.06
2022-09-07T21:14:07.506Z,100491.16
2022-09-07T21:16:36.055Z,100491.60
2022-09-07T21:19:06.874Z,100494.60
2022-09-07T21:21:38.938Z,100494.25
2022-09-07T21:24:19.035Z,100494.27
2022-09-07T21:26:47.587Z,100496.14
2022-09-07T21:29:20.955Z,100499.15
2022-09-07T21:31:48.847Z,100505.45
2022-09-07T21:34:17.060Z,100502.64
2022-09-07T21:36:45.480Z,100499.54
2022-09-07T21:39:14.870Z,100495.77
2022-09-07T21:41:43.402Z,100497.98
2022-09-07T21:44:13.387Z,100495.34
2022-09-07T21:46:41.753Z,100492.41
2022-09-07T21:49:09.722Z,100489.80
2022-09-07T21:51:37.831Z,100489.36
2022-09-07T21:54:06.116Z,100487.17
2022-09-07T21:56:34.699Z,100486.99
2022-09-07T21:59:02.905Z,100488.91
2022-09-07T22:01:31.760Z,100488.59
2022-09-07T22:04:01.805Z,100489.50
2022-09-07T22:06:32.219Z,100484.81
2022-09-07T22:09:01.392Z,100486.51
2022-09-07T22:11:29.862Z,100485.66
2022-09-07T22:14:03.480Z,100486.48
2022-09-07T22:16:33.073Z,100487.67
2022-09-07T22:19:01.060Z,100488.60
2022-09-07T22:21:29.919Z,100486.67
2022-09-07T22:24:03.604Z,100486.14
2022-09-07T22:26:33.813Z,100482.73
2022-09-07T22:29:01.733Z,100475.23
2022-09-07T22:31:34.469Z,100474.20
2022-09-07T22:34:04.221Z,100477.48
2022-09-07T22:36:40.789Z,100477.63
2022-09-07T22:39:12.296Z,100477.07
2022-09-07T22:41:40.362Z,100475.95
2022-09-07T22:44:11.287Z,100475.38
2022-09-07T22:46:41.566Z,100477.58
2022-09-07T22:49:11.751Z,100476.23
2022-09-07T22:51:39.413Z,100481.44
2022-09-07T22:54:08.026Z,100477.06
2022-09-07T22:56:36.607Z,100475.95
2022-09-07T22:59:07.511Z,100473.21
2022-09-07T23:01:35.988Z,100470.60
2022-09-07T23:04:04.470Z,100467.23
2022-09-07T23:06:37.359Z,100472.44
2022-09-07T23:09:12.742Z,100472.66
2022-09-07T23:11:40.554Z,100476.15
2022-09-07T23:14:12.890Z,100472.74
2022-09-07T23:16:40.660Z,100470.23
2022-09-07T23:19:09.969Z,100461.89
2022-09-07T23:21:39.736Z,100459.44
2022-09-07T23:24:08.551Z,100460.65
2022-09-07T23:26:36.175Z,100462.24
2022-09-07T23:29:04.900Z,100461.34
2022-09-07T23:31:34.420Z,100461.04
2022-09-07T23:34:03.010Z,100463.72
2022-09-07T23:36:30.812Z,100467.21
2022-09-07T23:39:00.147Z,100462.30
2022-09-07T23:41:28.497Z,100462.67
2022-09-07T23:43:57.013Z,100465.97
2022-09-07T23:46:25.010Z,100463.84
2022-09-07T23:48:52.951Z,100464.05
2022-09-07T23:51:24.103Z,100461.71
2022-09-07T23:53:53.509Z,100460.70
2022-09-07T23:56:24.713Z,100463.93
2022-09-07T23:58:52.428Z,100459.31
